sensor_id;sensor_type;location;lat;lon;timestamp;P1;durP1;ratioP1;P2;durP2;ratioP2
76631;SDS011;65526;48.578;-4.520;2022-12-29T00:00:03;18.90;;;3.15;;
76631;SDS011;65526;48.578;-4.520;2022-12-29T00:05:04;22.27;;;2.50;;
76631;SDS011;65526;48.578;-4.520;2022-12-29T00:07:31;22.88;;;2.95;;
76631;SDS011;65526;48.578;-4.520;2022-12-29T00:09:57;15.98;;;3.03;;
76631;SDS011;65526;48.578;-4.520;2022-12-29T00:12:24;21.45;;;2.60;;
76631;SDS011;65526;48.578;-4.520;2022-12-29T00:14:50;23.77;;;2.83;;
76631;SDS011;65526;48.578;-4.520;2022-12-29T00:17:35;16.35;;;2.30;;
76631;SDS011;65526;48.578;-4.520;2022-12-29T00:20:01;18.33;;;2.67;;
76631;SDS011;65526;48.578;-4.520;2022-12-29T00:22:46;26.65;;;3.65;;
76631;SDS011;65526;48.578;-4.520;2022-12-29T00:25:31;23.67;;;3.70;;
76631;SDS011;65526;48.578;-4.520;2022-12-29T00:28:16;21.42;;;2.90;;
76631;SDS011;65526;48.578;-4.520;2022-12-29T00:31:00;19.25;;;2.47;;
76631;SDS011;65526;48.578;-4.520;2022-12-29T00:33:45;25.30;;;4.32;;
76631;SDS011;65526;48.578;-4.520;2022-12-29T00:36:31;22.30;;;3.53;;
76631;SDS011;65526;48.578;-4.520;2022-12-29T00:39:06;20.60;;;3.53;;
76631;SDS011;65526;48.578;-4.520;2022-12-29T00:41:54;10.38;;;1.02;;
76631;SDS011;65526;48.578;-4.520;2022-12-29T00:44:39;11.20;;;2.15;;
76631;SDS011;65526;48.578;-4.520;2022-12-29T00:47:06;20.98;;;2.33;;
76631;SDS011;65526;48.578;-4.520;2022-12-29T00:49:32;23.17;;;3.38;;
76631;SDS011;65526;48.578;-4.520;2022-12-29T00:52:07;24.38;;;3.92;;
76631;SDS011;65526;48.578;-4.520;2022-12-29T00:54:38;17.35;;;2.90;;
76631;SDS011;65526;48.578;-4.520;2022-12-29T00:57:08;24.00;;;3.42;;
76631;SDS011;65526;48.578;-4.520;2022-12-29T00:59:36;13.18;;;2.35;;
76631;SDS011;65526;48.578;-4.520;2022-12-29T01:02:03;19.88;;;3.35;;
76631;SDS011;65526;48.578;-4.520;2022-12-29T01:04:30;21.15;;;2.53;;
76631;SDS011;65526;48.578;-4.520;2022-12-29T01:06:56;18.23;;;2.78;;
76631;SDS011;65526;48.578;-4.520;2022-12-29T01:09:23;20.50;;;2.50;;
76631;SDS011;65526;48.578;-4.520;2022-12-29T01:12:09;20.67;;;2.80;;
76631;SDS011;65526;48.578;-4.520;2022-12-29T01:14:36;21.15;;;3.13;;
76631;SDS011;65526;48.578;-4.520;2022-12-29T01:17:03;24.35;;;3.85;;
76631;SDS011;65526;48.578;-4.520;2022-12-29T01:19:30;22.33;;;2.83;;
76631;SDS011;65526;48.578;-4.520;2022-12-29T01:21:56;18.00;;;2.22;;
76631;SDS011;65526;48.578;-4.520;2022-12-29T01:24:23;17.50;;;2.65;;
76631;SDS011;65526;48.578;-4.520;2022-12-29T01:26:51;23.23;;;3.03;;
76631;SDS011;65526;48.578;-4.520;2022-12-29T01:29:17;16.90;;;2.28;;
76631;SDS011;65526;48.578;-4.520;2022-12-29T01:31:47;23.13;;;2.65;;
76631;SDS011;65526;48.578;-4.520;2022-12-29T01:34:15;18.23;;;2.35;;
76631;SDS011;65526;48.578;-4.520;2022-12-29T01:36:41;22.10;;;3.13;;
76631;SDS011;65526;48.578;-4.520;2022-12-29T01:39:08;19.42;;;3.13;;
76631;SDS011;65526;48.578;-4.520;2022-12-29T01:41:34;24.77;;;3.97;;
76631;SDS011;65526;48.578;-4.520;2022-12-29T01:44:01;19.80;;;3.90;;
76631;SDS011;65526;48.578;-4.520;2022-12-29T01:46:29;20.50;;;2.13;;
76631;SDS011;65526;48.578;-4.520;2022-12-29T01:51:32;20.75;;;2.28;;
76631;SDS011;65526;48.578;-4.520;2022-12-29T01:54:02;14.73;;;2.28;;
76631;SDS011;65526;48.578;-4.520;2022-12-29T01:56:33;20.35;;;3.03;;
76631;SDS011;65526;48.578;-4.520;2022-12-29T01:59:01;14.73;;;2.35;;
76631;SDS011;65526;48.578;-4.520;2022-12-29T02:01:32;26.30;;;3.13;;
76631;SDS011;65526;48.578;-4.520;2022-12-29T02:04:00;26.10;;;4.05;;
76631;SDS011;65526;48.578;-4.520;2022-12-29T02:06:35;20.20;;;2.58;;
76631;SDS011;65526;48.578;-4.520;2022-12-29T02:09:07;19.80;;;2.83;;
76631;SDS011;65526;48.578;-4.520;2022-12-29T02:11:34;28.83;;;3.83;;
76631;SDS011;65526;48.578;-4.520;2022-12-29T02:14:05;26.48;;;2.95;;
76631;SDS011;65526;48.578;-4.520;2022-12-29T02:16:49;27.20;;;2.70;;
76631;SDS011;65526;48.578;-4.520;2022-12-29T02:19:47;21.58;;;3.20;;
76631;SDS011;65526;48.578;-4.520;2022-12-29T02:28:27;25.67;;;3.10;;
76631;SDS011;65526;48.578;-4.520;2022-12-29T02:31:27;26.70;;;3.50;;
76631;SDS011;65526;48.578;-4.520;2022-12-29T02:34:09;22.17;;;2.80;;
76631;SDS011;65526;48.578;-4.520;2022-12-29T02:37:06;19.67;;;3.67;;
76631;SDS011;65526;48.578;-4.520;2022-12-29T02:52:52;17.48;;;1.98;;
76631;SDS011;65526;48.578;-4.520;2022-12-29T02:55:23;22.02;;;2.70;;
76631;SDS011;65526;48.578;-4.520;2022-12-29T02:58:03;27.17;;;3.15;;
76631;SDS011;65526;48.578;-4.520;2022-12-29T03:12:23;15.73;;;3.30;;
76631;SDS011;65526;48.578;-4.520;2022-12-29T03:15:21;16.38;;;2.33;;
76631;SDS011;65526;48.578;-4.520;2022-12-29T03:18:14;21.63;;;3.10;;
76631;SDS011;65526;48.578;-4.520;2022-12-29T03:23:18;18.30;;;2.20;;
76631;SDS011;65526;48.578;-4.520;2022-12-29T03:25:47;23.60;;;3.47;;
76631;SDS011;65526;48.578;-4.520;2022-12-29T03:28:24;22.10;;;2.72;;
76631;SDS011;65526;48.578;-4.520;2022-12-29T03:30:56;24.25;;;3.65;;
76631;SDS011;65526;48.578;-4.520;2022-12-29T03:33:25;23.17;;;3.58;;
76631;SDS011;65526;48.578;-4.520;2022-12-29T03:35:59;24.98;;;3.10;;
76631;SDS011;65526;48.578;-4.520;2022-12-29T03:41:18;12.30;;;2.47;;
76631;SDS011;65526;48.578;-4.520;2022-12-29T03:43:48;22.30;;;2.60;;
76631;SDS011;65526;48.578;-4.520;2022-12-29T03:46:15;32.58;;;3.70;;
76631;SDS011;65526;48.578;-4.520;2022-12-29T03:48:41;20.08;;;4.32;;
76631;SDS011;65526;48.578;-4.520;2022-12-29T03:51:08;19.98;;;2.95;;
76631;SDS011;65526;48.578;-4.520;2022-12-29T03:53:35;25.90;;;3.33;;
76631;SDS011;65526;48.578;-4.520;2022-12-29T03:56:02;19.58;;;2.92;;
76631;SDS011;65526;48.578;-4.520;2022-12-29T03:58:29;18.70;;;2.90;;
76631;SDS011;65526;48.578;-4.520;2022-12-29T04:01:04;20.90;;;3.33;;
76631;SDS011;65526;48.578;-4.520;2022-12-29T04:03:33;18.30;;;2.90;;
76631;SDS011;65526;48.578;-4.520;2022-12-29T04:06:00;23.48;;;3.97;;
76631;SDS011;65526;48.578;-4.520;2022-12-29T04:08:30;22.13;;;2.80;;
76631;SDS011;65526;48.578;-4.520;2022-12-29T04:10:57;22.33;;;3.60;;
76631;SDS011;65526;48.578;-4.520;2022-12-29T04:13:23;30.42;;;3.90;;
76631;SDS011;65526;48.578;-4.520;2022-12-29T04:15:50;21.50;;;4.10;;
76631;SDS011;65526;48.578;-4.520;2022-12-29T04:18:17;25.70;;;3.60;;
76631;SDS011;65526;48.578;-4.520;2022-12-29T04:20:44;24.70;;;5.07;;
76631;SDS011;65526;48.578;-4.520;2022-12-29T04:23:27;30.83;;;4.13;;
76631;SDS011;65526;48.578;-4.520;2022-12-29T04:25:54;25.65;;;2.85;;
76631;SDS011;65526;48.578;-4.520;2022-12-29T04:28:21;19.67;;;2.90;;
76631;SDS011;65526;48.578;-4.520;2022-12-29T04:31:01;11.95;;;2.03;;
76631;SDS011;65526;48.578;-4.520;2022-12-29T04:33:34;24.40;;;3.47;;
76631;SDS011;65526;48.578;-4.520;2022-12-29T04:36:01;18.60;;;2.78;;
76631;SDS011;65526;48.578;-4.520;2022-12-29T04:38:27;16.02;;;2.40;;
76631;SDS011;65526;48.578;-4.520;2022-12-29T04:40:54;20.98;;;2.95;;
76631;SDS011;65526;48.578;-4.520;2022-12-29T04:43:23;17.08;;;2.75;;
76631;SDS011;65526;48.578;-4.520;2022-12-29T04:46:19;13.68;;;2.03;;
76631;SDS011;65526;48.578;-4.520;2022-12-29T04:49:08;15.50;;;1.90;;
76631;SDS011;65526;48.578;-4.520;2022-12-29T04:51:54;14.45;;;1.88;;
76631;SDS011;65526;48.578;-4.520;2022-12-29T04:54:22;15.93;;;2.35;;
76631;SDS011;65526;48.578;-4.520;2022-12-29T04:56:55;16.63;;;2.50;;
76631;SDS011;65526;48.578;-4.520;2022-12-29T04:59:23;14.35;;;2.00;;
76631;SDS011;65526;48.578;-4.520;2022-12-29T05:01:53;14.98;;;1.95;;
76631;SDS011;65526;48.578;-4.520;2022-12-29T05:04:20;19.30;;;2.38;;
76631;SDS011;65526;48.578;-4.520;2022-12-29T05:06:46;15.70;;;2.10;;
76631;SDS011;65526;48.578;-4.520;2022-12-29T05:09:13;15.70;;;1.98;;
76631;SDS011;65526;48.578;-4.520;2022-12-29T05:11:40;13.77;;;2.17;;
76631;SDS011;65526;48.578;-4.520;2022-12-29T05:14:08;16.60;;;2.40;;
76631;SDS011;65526;48.578;-4.520;2022-12-29T05:16:35;15.38;;;3.05;;
76631;SDS011;65526;48.578;-4.520;2022-12-29T05:19:02;16.23;;;2.85;;
76631;SDS011;65526;48.578;-4.520;2022-12-29T05:21:30;14.73;;;2.20;;
76631;SDS011;65526;48.578;-4.520;2022-12-29T05:23:58;14.82;;;2.88;;
76631;SDS011;65526;48.578;-4.520;2022-12-29T05:26:24;22.23;;;3.95;;
76631;SDS011;65526;48.578;-4.520;2022-12-29T05:28:59;22.08;;;2.40;;
76631;SDS011;65526;48.578;-4.520;2022-12-29T05:31:26;19.10;;;2.83;;
76631;SDS011;65526;48.578;-4.520;2022-12-29T05:33:52;21.55;;;2.55;;
76631;SDS011;65526;48.578;-4.520;2022-12-29T05:36:19;26.35;;;2.95;;
76631;SDS011;65526;48.578;-4.520;2022-12-29T05:38:49;27.10;;;4.10;;
76631;SDS011;65526;48.578;-4.520;2022-12-29T05:41:17;29.00;;;3.40;;
76631;SDS011;65526;48.578;-4.520;2022-12-29T05:44:02;25.73;;;3.70;;
76631;SDS011;65526;48.578;-4.520;2022-12-29T05:46:28;17.73;;;3.13;;
76631;SDS011;65526;48.578;-4.520;2022-12-29T05:49:15;19.85;;;2.65;;
76631;SDS011;65526;48.578;-4.520;2022-12-29T05:52:17;18.83;;;2.30;;
76631;SDS011;65526;48.578;-4.520;2022-12-29T05:54:44;20.63;;;2.38;;
76631;SDS011;65526;48.578;-4.520;2022-12-29T05:57:13;20.85;;;3.53;;
76631;SDS011;65526;48.578;-4.520;2022-12-29T05:59:43;27.25;;;2.70;;
76631;SDS011;65526;48.578;-4.520;2022-12-29T06:02:09;19.92;;;3.88;;
76631;SDS011;65526;48.578;-4.520;2022-12-29T06:04:37;21.88;;;2.38;;
76631;SDS011;65526;48.578;-4.520;2022-12-29T06:07:03;19.65;;;2.33;;
76631;SDS011;65526;48.578;-4.520;2022-12-29T06:09:38;19.05;;;3.10;;
76631;SDS011;65526;48.578;-4.520;2022-12-29T06:12:05;18.65;;;2.72;;
76631;SDS011;65526;48.578;-4.520;2022-12-29T06:14:32;19.90;;;3.55;;
76631;SDS011;65526;48.578;-4.520;2022-12-29T06:16:59;18.33;;;3.63;;
76631;SDS011;65526;48.578;-4.520;2022-12-29T06:19:26;17.23;;;3.78;;
76631;SDS011;65526;48.578;-4.520;2022-12-29T06:21:52;25.65;;;3.58;;
76631;SDS011;65526;48.578;-4.520;2022-12-29T06:24:19;14.35;;;2.88;;
76631;SDS011;65526;48.578;-4.520;2022-12-29T06:26:46;24.58;;;3.08;;
76631;SDS011;65526;48.578;-4.520;2022-12-29T06:29:13;28.25;;;2.95;;
76631;SDS011;65526;48.578;-4.520;2022-12-29T06:31:44;29.27;;;3.58;;
76631;SDS011;65526;48.578;-4.520;2022-12-29T06:34:14;21.10;;;4.07;;
76631;SDS011;65526;48.578;-4.520;2022-12-29T06:36:41;21.30;;;2.88;;
76631;SDS011;65526;48.578;-4.520;2022-12-29T06:39:07;22.90;;;2.78;;
76631;SDS011;65526;48.578;-4.520;2022-12-29T06:41:34;15.30;;;2.55;;
76631;SDS011;65526;48.578;-4.520;2022-12-29T06:44:33;16.80;;;2.92;;
76631;SDS011;65526;48.578;-4.520;2022-12-29T06:47:05;14.88;;;1.88;;
76631;SDS011;65526;48.578;-4.520;2022-12-29T06:49:31;15.48;;;2.10;;
76631;SDS011;65526;48.578;-4.520;2022-12-29T06:51:58;13.30;;;2.85;;
76631;SDS011;65526;48.578;-4.520;2022-12-29T06:54:26;15.98;;;2.17;;
76631;SDS011;65526;48.578;-4.520;2022-12-29T06:56:52;20.38;;;1.92;;
76631;SDS011;65526;48.578;-4.520;2022-12-29T06:59:19;13.98;;;3.60;;
76631;SDS011;65526;48.578;-4.520;2022-12-29T07:01:45;17.92;;;3.03;;
76631;SDS011;65526;48.578;-4.520;2022-12-29T07:04:12;21.50;;;2.92;;
76631;SDS011;65526;48.578;-4.520;2022-12-29T07:06:38;27.45;;;3.47;;
76631;SDS011;65526;48.578;-4.520;2022-12-29T07:09:06;19.63;;;2.55;;
76631;SDS011;65526;48.578;-4.520;2022-12-29T07:11:34;26.15;;;3.17;;
76631;SDS011;65526;48.578;-4.520;2022-12-29T07:14:01;15.15;;;2.03;;
76631;SDS011;65526;48.578;-4.520;2022-12-29T07:16:28;19.33;;;2.42;;
76631;SDS011;65526;48.578;-4.520;2022-12-29T07:18:56;15.20;;;2.67;;
76631;SDS011;65526;48.578;-4.520;2022-12-29T07:21:24;22.98;;;2.20;;
76631;SDS011;65526;48.578;-4.520;2022-12-29T07:23:51;21.48;;;2.60;;
76631;SDS011;65526;48.578;-4.520;2022-12-29T07:26:17;16.42;;;2.25;;
76631;SDS011;65526;48.578;-4.520;2022-12-29T07:28:44;10.25;;;1.83;;
76631;SDS011;65526;48.578;-4.520;2022-12-29T07:31:14;17.27;;;1.70;;
76631;SDS011;65526;48.578;-4.520;2022-12-29T07:33:43;19.45;;;2.70;;
76631;SDS011;65526;48.578;-4.520;2022-12-29T07:36:11;13.40;;;2.58;;
76631;SDS011;65526;48.578;-4.520;2022-12-29T07:38:38;14.95;;;1.95;;
76631;SDS011;65526;48.578;-4.520;2022-12-29T07:41:05;20.67;;;2.75;;
76631;SDS011;65526;48.578;-4.520;2022-12-29T07:43:31;18.77;;;2.97;;
76631;SDS011;65526;48.578;-4.520;2022-12-29T07:46:16;19.92;;;3.22;;
76631;SDS011;65526;48.578;-4.520;2022-12-29T07:48:42;11.90;;;2.53;;
76631;SDS011;65526;48.578;-4.520;2022-12-29T07:51:09;11.82;;;1.70;;
76631;SDS011;65526;48.578;-4.520;2022-12-29T07:53:36;9.65;;;1.92;;
76631;SDS011;65526;48.578;-4.520;2022-12-29T07:56:05;12.10;;;1.55;;
76631;SDS011;65526;48.578;-4.520;2022-12-29T07:58:32;15.60;;;1.98;;
76631;SDS011;65526;48.578;-4.520;2022-12-29T08:00:58;13.43;;;1.77;;
76631;SDS011;65526;48.578;-4.520;2022-12-29T08:03:24;10.68;;;1.40;;
76631;SDS011;65526;48.578;-4.520;2022-12-29T08:05:51;20.05;;;2.25;;
76631;SDS011;65526;48.578;-4.520;2022-12-29T08:08:18;26.58;;;3.92;;
76631;SDS011;65526;48.578;-4.520;2022-12-29T08:10:45;17.00;;;3.33;;
76631;SDS011;65526;48.578;-4.520;2022-12-29T08:13:12;16.70;;;2.78;;
76631;SDS011;65526;48.578;-4.520;2022-12-29T08:15:38;25.65;;;3.03;;
76631;SDS011;65526;48.578;-4.520;2022-12-29T08:18:05;19.70;;;2.90;;
76631;SDS011;65526;48.578;-4.520;2022-12-29T08:20:31;16.17;;;2.22;;
76631;SDS011;65526;48.578;-4.520;2022-12-29T08:22:58;17.65;;;2.10;;
76631;SDS011;65526;48.578;-4.520;2022-12-29T08:25:24;15.93;;;2.40;;
76631;SDS011;65526;48.578;-4.520;2022-12-29T08:27:51;17.08;;;1.92;;
76631;SDS011;65526;48.578;-4.520;2022-12-29T08:30:17;23.23;;;3.33;;
76631;SDS011;65526;48.578;-4.520;2022-12-29T08:32:43;12.45;;;2.10;;
76631;SDS011;65526;48.578;-4.520;2022-12-29T08:35:10;18.25;;;2.03;;
76631;SDS011;65526;48.578;-4.520;2022-12-29T08:37:36;13.82;;;1.90;;
76631;SDS011;65526;48.578;-4.520;2022-12-29T08:40:03;17.67;;;2.47;;
76631;SDS011;65526;48.578;-4.520;2022-12-29T08:42:30;20.95;;;2.08;;
76631;SDS011;65526;48.578;-4.520;2022-12-29T08:44:57;14.98;;;2.28;;
76631;SDS011;65526;48.578;-4.520;2022-12-29T08:47:25;14.45;;;2.20;;
76631;SDS011;65526;48.578;-4.520;2022-12-29T08:49:51;13.27;;;1.85;;
76631;SDS011;65526;48.578;-4.520;2022-12-29T08:52:18;13.63;;;2.40;;
76631;SDS011;65526;48.578;-4.520;2022-12-29T08:54:44;18.23;;;1.88;;
76631;SDS011;65526;48.578;-4.520;2022-12-29T08:57:11;22.45;;;2.47;;
76631;SDS011;65526;48.578;-4.520;2022-12-29T08:59:50;15.85;;;2.22;;
76631;SDS011;65526;48.578;-4.520;2022-12-29T09:02:17;18.15;;;1.85;;
76631;SDS011;65526;48.578;-4.520;2022-12-29T09:04:43;12.20;;;2.10;;
76631;SDS011;65526;48.578;-4.520;2022-12-29T09:07:10;20.48;;;2.58;;
76631;SDS011;65526;48.578;-4.520;2022-12-29T09:09:36;16.35;;;3.35;;
76631;SDS011;65526;48.578;-4.520;2022-12-29T09:12:03;20.73;;;2.95;;
76631;SDS011;65526;48.578;-4.520;2022-12-29T09:14:29;26.58;;;2.65;;
76631;SDS011;65526;48.578;-4.520;2022-12-29T09:16:55;11.57;;;2.17;;
76631;SDS011;65526;48.578;-4.520;2022-12-29T09:19:41;17.52;;;1.98;;
76631;SDS011;65526;48.578;-4.520;2022-12-29T09:22:07;13.15;;;2.15;;
76631;SDS011;65526;48.578;-4.520;2022-12-29T09:24:33;13.00;;;1.98;;
76631;SDS011;65526;48.578;-4.520;2022-12-29T09:27:00;18.70;;;2.65;;
76631;SDS011;65526;48.578;-4.520;2022-12-29T09:29:26;12.82;;;1.98;;
76631;SDS011;65526;48.578;-4.520;2022-12-29T09:31:53;15.38;;;2.42;;
76631;SDS011;65526;48.578;-4.520;2022-12-29T09:34:19;13.32;;;2.00;;
76631;SDS011;65526;48.578;-4.520;2022-12-29T09:36:45;12.20;;;1.98;;
76631;SDS011;65526;48.578;-4.520;2022-12-29T09:39:12;13.48;;;1.63;;
76631;SDS011;65526;48.578;-4.520;2022-12-29T09:41:39;11.25;;;1.65;;
76631;SDS011;65526;48.578;-4.520;2022-12-29T09:47:28;12.55;;;1.50;;
76631;SDS011;65526;48.578;-4.520;2022-12-29T09:49:56;12.48;;;2.83;;
76631;SDS011;65526;48.578;-4.520;2022-12-29T09:52:32;10.95;;;1.88;;
76631;SDS011;65526;48.578;-4.520;2022-12-29T09:55:03;9.82;;;1.30;;
76631;SDS011;65526;48.578;-4.520;2022-12-29T10:00:19;23.17;;;2.72;;
76631;SDS011;65526;48.578;-4.520;2022-12-29T10:07:48;18.48;;;2.05;;
76631;SDS011;65526;48.578;-4.520;2022-12-29T10:10:19;11.98;;;1.77;;
76631;SDS011;65526;48.578;-4.520;2022-12-29T10:15:43;14.80;;;2.30;;
76631;SDS011;65526;48.578;-4.520;2022-12-29T10:24:02;8.68;;;1.10;;
76631;SDS011;65526;48.578;-4.520;2022-12-29T10:26:35;14.82;;;1.85;;
76631;SDS011;65526;48.578;-4.520;2022-12-29T10:29:08;15.85;;;2.25;;
76631;SDS011;65526;48.578;-4.520;2022-12-29T10:32:04;12.70;;;1.30;;
76631;SDS011;65526;48.578;-4.520;2022-12-29T10:34:36;13.75;;;1.75;;
76631;SDS011;65526;48.578;-4.520;2022-12-29T10:37:13;11.35;;;1.33;;
76631;SDS011;65526;48.578;-4.520;2022-12-29T10:39:51;11.80;;;1.63;;
76631;SDS011;65526;48.578;-4.520;2022-12-29T10:44:53;9.50;;;1.10;;
76631;SDS011;65526;48.578;-4.520;2022-12-29T10:47:22;10.82;;;1.10;;
76631;SDS011;65526;48.578;-4.520;2022-12-29T10:49:53;8.32;;;1.00;;
76631;SDS011;65526;48.578;-4.520;2022-12-29T10:52:20;7.80;;;1.17;;
76631;SDS011;65526;48.578;-4.520;2022-12-29T10:54:51;10.52;;;1.23;;
76631;SDS011;65526;48.578;-4.520;2022-12-29T11:03:44;10.98;;;2.08;;
76631;SDS011;65526;48.578;-4.520;2022-12-29T11:08:36;12.15;;;1.92;;
76631;SDS011;65526;48.578;-4.520;2022-12-29T11:11:08;10.38;;;1.90;;
76631;SDS011;65526;48.578;-4.520;2022-12-29T11:13:57;20.80;;;2.70;;
76631;SDS011;65526;48.578;-4.520;2022-12-29T11:16:31;15.73;;;2.33;;
76631;SDS011;65526;48.578;-4.520;2022-12-29T11:19:00;18.17;;;2.75;;
76631;SDS011;65526;48.578;-4.520;2022-12-29T11:21:31;13.30;;;2.10;;
76631;SDS011;65526;48.578;-4.520;2022-12-29T11:24:21;10.27;;;1.98;;
76631;SDS011;65526;48.578;-4.520;2022-12-29T11:26:51;18.20;;;2.63;;
76631;SDS011;65526;48.578;-4.520;2022-12-29T11:29:24;8.35;;;1.58;;
76631;SDS011;65526;48.578;-4.520;2022-12-29T11:31:55;9.63;;;1.58;;
76631;SDS011;65526;48.578;-4.520;2022-12-29T11:37:04;11.27;;;1.33;;
76631;SDS011;65526;48.578;-4.520;2022-12-29T11:42:18;11.68;;;1.25;;
76631;SDS011;65526;48.578;-4.520;2022-12-29T11:44:48;9.88;;;1.83;;
76631;SDS011;65526;48.578;-4.520;2022-12-29T11:47:36;14.07;;;2.90;;
76631;SDS011;65526;48.578;-4.520;2022-12-29T11:50:03;7.72;;;1.75;;
76631;SDS011;65526;48.578;-4.520;2022-12-29T11:52:33;15.23;;;1.60;;
76631;SDS011;65526;48.578;-4.520;2022-12-29T11:55:05;14.10;;;1.70;;
76631;SDS011;65526;48.578;-4.520;2022-12-29T11:57:43;13.38;;;2.53;;
76631;SDS011;65526;48.578;-4.520;2022-12-29T12:00:14;15.10;;;1.60;;
76631;SDS011;65526;48.578;-4.520;2022-12-29T12:05:24;13.30;;;1.45;;
76631;SDS011;65526;48.578;-4.520;2022-12-29T12:07:59;10.23;;;1.30;;
76631;SDS011;65526;48.578;-4.520;2022-12-29T12:10:38;10.52;;;1.42;;
76631;SDS011;65526;48.578;-4.520;2022-12-29T12:13:14;8.00;;;1.58;;
76631;SDS011;65526;48.578;-4.520;2022-12-29T12:16:33;9.43;;;1.55;;
76631;SDS011;65526;48.578;-4.520;2022-12-29T12:19:09;15.45;;;1.77;;
76631;SDS011;65526;48.578;-4.520;2022-12-29T12:21:46;11.65;;;1.60;;
76631;SDS011;65526;48.578;-4.520;2022-12-29T12:27:13;9.43;;;2.35;;
76631;SDS011;65526;48.578;-4.520;2022-12-29T12:29:52;7.13;;;1.52;;
76631;SDS011;65526;48.578;-4.520;2022-12-29T12:38:15;11.88;;;1.63;;
76631;SDS011;65526;48.578;-4.520;2022-12-29T12:41:10;10.52;;;1.80;;
76631;SDS011;65526;48.578;-4.520;2022-12-29T12:43:40;15.00;;;1.90;;
76631;SDS011;65526;48.578;-4.520;2022-12-29T12:46:12;7.18;;;1.00;;
76631;SDS011;65526;48.578;-4.520;2022-12-29T12:48:47;5.95;;;1.02;;
76631;SDS011;65526;48.578;-4.520;2022-12-29T12:54:45;18.00;;;1.77;;
76631;SDS011;65526;48.578;-4.520;2022-12-29T12:57:40;12.00;;;2.28;;
76631;SDS011;65526;48.578;-4.520;2022-12-29T13:00:19;8.73;;;2.00;;
76631;SDS011;65526;48.578;-4.520;2022-12-29T13:02:53;6.47;;;1.70;;
76631;SDS011;65526;48.578;-4.520;2022-12-29T13:13:56;4.47;;;1.30;;
76631;SDS011;65526;48.578;-4.520;2022-12-29T13:19:31;4.90;;;0.80;;
76631;SDS011;65526;48.578;-4.520;2022-12-29T13:22:13;9.27;;;1.00;;
76631;SDS011;65526;48.578;-4.520;2022-12-29T13:35:55;13.00;;;1.35;;
76631;SDS011;65526;48.578;-4.520;2022-12-29T13:38:39;10.18;;;1.23;;
76631;SDS011;65526;48.578;-4.520;2022-12-29T13:41:14;12.18;;;1.20;;
76631;SDS011;65526;48.578;-4.520;2022-12-29T13:43:42;9.45;;;1.40;;
76631;SDS011;65526;48.578;-4.520;2022-12-29T13:46:13;10.48;;;1.50;;
76631;SDS011;65526;48.578;-4.520;2022-12-29T13:48:49;11.48;;;2.22;;
76631;SDS011;65526;48.578;-4.520;2022-12-29T13:51:20;10.38;;;1.45;;
76631;SDS011;65526;48.578;-4.520;2022-12-29T13:56:35;12.48;;;2.03;;
76631;SDS011;65526;48.578;-4.520;2022-12-29T14:05:05;8.52;;;2.03;;
76631;SDS011;65526;48.578;-4.520;2022-12-29T14:07:59;7.05;;;1.50;;
76631;SDS011;65526;48.578;-4.520;2022-12-29T14:10:28;11.50;;;1.30;;
76631;SDS011;65526;48.578;-4.520;2022-12-29T14:13:09;5.97;;;1.30;;
76631;SDS011;65526;48.578;-4.520;2022-12-29T14:15:41;11.63;;;1.30;;
76631;SDS011;65526;48.578;-4.520;2022-12-29T14:18:18;11.65;;;1.75;;
76631;SDS011;65526;48.578;-4.520;2022-12-29T14:20:53;11.45;;;3.03;;
76631;SDS011;65526;48.578;-4.520;2022-12-29T14:28:40;11.23;;;1.67;;
76631;SDS011;65526;48.578;-4.520;2022-12-29T14:33:41;12.95;;;1.90;;
76631;SDS011;65526;48.578;-4.520;2022-12-29T14:39:03;8.95;;;1.48;;
76631;SDS011;65526;48.578;-4.520;2022-12-29T14:42:03;9.07;;;1.27;;
76631;SDS011;65526;48.578;-4.520;2022-12-29T14:44:33;14.82;;;1.92;;
76631;SDS011;65526;48.578;-4.520;2022-12-29T14:47:13;9.38;;;2.03;;
76631;SDS011;65526;48.578;-4.520;2022-12-29T14:49:45;12.07;;;1.40;;
76631;SDS011;65526;48.578;-4.520;2022-12-29T14:52:25;14.75;;;2.35;;
76631;SDS011;65526;48.578;-4.520;2022-12-29T14:54:55;10.68;;;1.67;;
76631;SDS011;65526;48.578;-4.520;2022-12-29T14:57:53;15.52;;;2.88;;
76631;SDS011;65526;48.578;-4.520;2022-12-29T15:00:27;16.67;;;1.98;;
76631;SDS011;65526;48.578;-4.520;2022-12-29T15:03:03;9.13;;;1.60;;
76631;SDS011;65526;48.578;-4.520;2022-12-29T15:05:45;9.88;;;1.55;;
76631;SDS011;65526;48.578;-4.520;2022-12-29T15:08:25;16.67;;;1.58;;
76631;SDS011;65526;48.578;-4.520;2022-12-29T15:11:01;16.00;;;2.08;;
76631;SDS011;65526;48.578;-4.520;2022-12-29T15:13:37;12.43;;;1.25;;
76631;SDS011;65526;48.578;-4.520;2022-12-29T15:16:24;13.00;;;1.48;;
76631;SDS011;65526;48.578;-4.520;2022-12-29T15:19:03;13.05;;;1.77;;
76631;SDS011;65526;48.578;-4.520;2022-12-29T15:21:46;14.70;;;1.70;;
76631;SDS011;65526;48.578;-4.520;2022-12-29T15:24:16;7.68;;;1.33;;
76631;SDS011;65526;48.578;-4.520;2022-12-29T15:26:44;11.98;;;1.65;;
76631;SDS011;65526;48.578;-4.520;2022-12-29T15:29:28;13.55;;;1.80;;
76631;SDS011;65526;48.578;-4.520;2022-12-29T15:34:44;13.50;;;1.25;;
76631;SDS011;65526;48.578;-4.520;2022-12-29T15:37:19;10.38;;;1.55;;
76631;SDS011;65526;48.578;-4.520;2022-12-29T15:39:48;9.65;;;1.80;;
76631;SDS011;65526;48.578;-4.520;2022-12-29T15:42:31;14.73;;;1.98;;
76631;SDS011;65526;48.578;-4.520;2022-12-29T15:45:18;11.45;;;1.55;;
76631;SDS011;65526;48.578;-4.520;2022-12-29T15:47:44;17.02;;;1.88;;
76631;SDS011;65526;48.578;-4.520;2022-12-29T15:50:19;10.38;;;1.23;;
76631;SDS011;65526;48.578;-4.520;2022-12-29T15:52:49;9.48;;;1.55;;
76631;SDS011;65526;48.578;-4.520;2022-12-29T15:55:35;11.82;;;1.50;;
76631;SDS011;65526;48.578;-4.520;2022-12-29T15:58:05;13.98;;;2.92;;
76631;SDS011;65526;48.578;-4.520;2022-12-29T16:00:46;8.32;;;2.25;;
76631;SDS011;65526;48.578;-4.520;2022-12-29T16:03:15;10.70;;;1.67;;
76631;SDS011;65526;48.578;-4.520;2022-12-29T16:05:42;8.30;;;1.65;;
76631;SDS011;65526;48.578;-4.520;2022-12-29T16:08:34;9.43;;;1.67;;
76631;SDS011;65526;48.578;-4.520;2022-12-29T16:11:04;19.77;;;2.75;;
76631;SDS011;65526;48.578;-4.520;2022-12-29T16:13:44;12.82;;;1.95;;
76631;SDS011;65526;48.578;-4.520;2022-12-29T16:16:16;10.43;;;1.80;;
76631;SDS011;65526;48.578;-4.520;2022-12-29T16:18:54;14.23;;;2.10;;
76631;SDS011;65526;48.578;-4.520;2022-12-29T16:21:23;8.65;;;1.63;;
76631;SDS011;65526;48.578;-4.520;2022-12-29T16:24:17;15.88;;;1.50;;
76631;SDS011;65526;48.578;-4.520;2022-12-29T16:26:53;9.32;;;1.65;;
76631;SDS011;65526;48.578;-4.520;2022-12-29T16:29:28;8.73;;;1.00;;
76631;SDS011;65526;48.578;-4.520;2022-12-29T16:31:57;10.02;;;1.88;;
76631;SDS011;65526;48.578;-4.520;2022-12-29T16:34:49;11.48;;;2.72;;
76631;SDS011;65526;48.578;-4.520;2022-12-29T16:50:26;7.15;;;1.50;;
76631;SDS011;65526;48.578;-4.520;2022-12-29T16:52:53;10.48;;;1.55;;
76631;SDS011;65526;48.578;-4.520;2022-12-29T16:55:20;9.90;;;1.77;;
76631;SDS011;65526;48.578;-4.520;2022-12-29T16:57:46;7.90;;;2.22;;
76631;SDS011;65526;48.578;-4.520;2022-12-29T17:02:58;9.57;;;1.27;;
76631;SDS011;65526;48.578;-4.520;2022-12-29T17:05:26;12.75;;;1.98;;
76631;SDS011;65526;48.578;-4.520;2022-12-29T17:07:53;11.57;;;2.05;;
76631;SDS011;65526;48.578;-4.520;2022-12-29T17:10:20;13.35;;;3.38;;
76631;SDS011;65526;48.578;-4.520;2022-12-29T17:13:07;15.75;;;2.45;;
76631;SDS011;65526;48.578;-4.520;2022-12-29T17:15:33;7.53;;;1.83;;
76631;SDS011;65526;48.578;-4.520;2022-12-29T17:18:00;14.52;;;2.47;;
76631;SDS011;65526;48.578;-4.520;2022-12-29T17:20:27;19.50;;;4.63;;
76631;SDS011;65526;48.578;-4.520;2022-12-29T17:22:56;14.48;;;2.33;;
76631;SDS011;65526;48.578;-4.520;2022-12-29T17:25:34;9.43;;;2.13;;